| time (UTC) | temp F | wind direction | speed knots | gust knots | rain 1hr in | rain 24hr in | rain mn in | humidity % | barometer mb |
| 20260906203106 | 103 | 158 | 5.2 | 12.2 | 0.00 | 0.00 | 0.00 | 31 | 1008.6 |
| 20260906201502 | 103 | 163 | 7.0 | 9.6 | 0.00 | 0.00 | 0.00 | 31 | 1008.8 |
| 20260906200109 | 103 | 153 | 4.3 | 8.7 | 0.00 | 0.00 | 0.00 | 32 | 1009.2 |
| 20260906194502 | 103 | 182 | 5.2 | 8.7 | 0.00 | 0.00 | 0.00 | 31 | 1009.4 |
| 20260906193003 | 102 | 225 | 5.2 | 8.7 | 0.00 | 0.00 | 0.00 | 31 | 1009.7 |
| 20260906191603 | 102 | 158 | 5.2 | 12.2 | 0.00 | 0.00 | 0.00 | 32 | 1009.9 |
| 20260906190003 | 99 | 137 | 5.2 | 9.6 | 0.00 | 0.00 | 0.00 | 35 | 1010.2 |
| 20260906184501 | 100 | 129 | 2.6 | 8.7 | 0.00 | 0.00 | 0.00 | 34 | 1010.4 |
| 20260906183004 | 101 | 119 | 3.5 | 7.0 | 0.00 | 0.00 | 0.00 | 33 | 1010.6 |
| 20260906181603 | 101 | 113 | 5.2 | 9.6 | 0.00 | 0.00 | 0.00 | 34 | 1010.8 |
| 20260906180002 | 99 | 109 | 0.0 | 1.7 | 0.00 | 0.00 | 0.00 | 37 | 1011.1 |
| 20260906174602 | 99 | 111 | 2.6 | 9.6 | 0.00 | 0.00 | 0.00 | 35 | 1011.4 |
| 20260906173113 | 100 | 113 | 6.1 | 9.6 | 0.00 | 0.00 | 0.00 | 35 | 1011.6 |
| 20260906171503 | 100 | 85 | 1.7 | 7.0 | 0.00 | 0.00 | 0.00 | 36 | 1011.9 |
| 20260906170111 | 99 | 72 | 1.7 | 7.0 | 0.00 | 0.00 | 0.00 | 37 | 1012.0 |
| 20260906164502 | 97 | 46 | 0.9 | 3.5 | 0.00 | 0.00 | 0.00 | 38 | 1012.2 |
| 20260906163002 | 96 | 40 | 0.9 | 3.5 | 0.00 | 0.00 | 0.00 | 40 | 1012.3 |
| 20260906161608 | 95 | 42 | 0.9 | 4.3 | 0.00 | 0.00 | 0.00 | 41 | 1012.3 |
| 20260906160002 | 95 | 61 | 1.7 | 5.2 | 0.00 | 0.00 | 0.00 | 41 | 1012.2 |
| 20260906154603 | 94 | 80 | 2.6 | 4.3 | 0.00 | 0.00 | 0.00 | 42 | 1012.3 |
| 20260906153103 | 92 | 99 | 0.0 | 3.5 | 0.00 | 0.00 | 0.00 | 45 | 1012.2 |
| 20260906151502 | 90 | 99 | 0.0 | 3.5 | 0.00 | 0.00 | 0.00 | 48 | 1012.3 |
| 20260906150105 | 89 | 128 | 1.7 | 3.5 | 0.00 | 0.00 | 0.00 | 50 | 1012.2 |
| 20260906144503 | 87 | 148 | 0.0 | 0.0 | 0.00 | 0.00 | 0.00 | 52 | 1012.2 |
| 20260906143010 | 85 | 148 | 0.0 | 0.0 | 0.00 | 0.00 | 0.00 | 57 | 1012.2 |
| 20260906141625 | 82 | 150 | 0.0 | 0.0 | 0.00 | 0.00 | 0.00 | 62 | 1012.1 |
| 20260906140002 | 79 | 150 | 0.0 | 0.0 | 0.00 | 0.00 | 0.00 | 70 | 1012.0 |
| 20260906134628 | 77 | 150 | 0.0 | 0.0 | 0.00 | 0.00 | 0.00 | 73 | 1012.0 |
| 20260906133106 | 76 | 150 | 0.0 | 0.0 | 0.00 | 0.00 | 0.00 | 76 | 1011.8 |
| 20260906131503 | 75 | 150 | 0.0 | 0.0 | 0.00 | 0.00 | 0.00 | 76 | 1011.7 |
| 20260906130148 | 74 | 151 | 0.0 | 0.0 | 0.00 | 0.00 | 0.00 | 79 | 1011.5 |
| 20260906124503 | 72 | 151 | 0.0 | 0.0 | 0.00 | 0.00 | 0.00 | 83 | 1011.2 |
| 20260906123003 | 71 | 151 | 0.0 | 0.0 | 0.00 | 0.00 | 0.00 | 82 | 1010.9 |
| 20260906121609 | 72 | 151 | 0.0 | 0.0 | 0.00 | 0.00 | 0.00 | 81 | 1010.8 |
| 20260906120006 | 72 | 151 | 0.0 | 0.0 | 0.00 | 0.00 | 0.00 | 81 | 1010.5 |
| 20260906114607 | 72 | 151 | 0.0 | 0.0 | 0.00 | 0.00 | 0.00 | 81 | 1010.4 |
| 20260906111504 | 72 | 151 | 0.0 | 0.0 | 0.00 | 0.00 | 0.00 | 79 | 1010.3 |
| 20260906104504 | 73 | 151 | 0.0 | 0.0 | 0.00 | 0.00 | 0.00 | 78 | 1010.2 |
| 20260906103002 | 73 | 151 | 0.0 | 0.0 | 0.00 | 0.00 | 0.00 | 78 | 1010.1 |
| 20260906101602 | 74 | 151 | 0.0 | 0.0 | 0.00 | 0.00 | 0.00 | 77 | 1010.0 |
| 20260906100007 | 74 | 151 | 0.0 | 0.0 | 0.00 | 0.00 | 0.00 | 77 | 1010.1 |
| 20260906094604 | 74 | 151 | 0.0 | 0.0 | 0.00 | 0.00 | 0.00 | 76 | 1009.9 |
| 20260906093103 | 74 | 151 | 0.0 | 0.0 | 0.00 | 0.00 | 0.00 | 76 | 1009.9 |
| 20260906091502 | 74 | 151 | 0.0 | 0.0 | 0.00 | 0.00 | 0.00 | 75 | 1009.9 |
| 20260906090003 | 74 | 151 | 0.0 | 0.0 | 0.00 | 0.00 | 0.00 | 75 | 1009.8 |
| 20260906084603 | 75 | 151 | 0.0 | 0.0 | 0.00 | 0.00 | 0.00 | 74 | 1009.7 |
| 20260906083103 | 75 | 151 | 0.0 | 0.0 | 0.00 | 0.00 | 0.00 | 73 | 1009.6 |
| 20260906081502 | 76 | 151 | 0.0 | 0.0 | 0.00 | 0.00 | 0.00 | 71 | 1009.7 |
| 20260906074503 | 76 | 151 | 0.0 | 0.0 | 0.00 | 0.00 | 0.00 | 69 | 1009.6 |
| 20260906073002 | 77 | 151 | 0.0 | 0.0 | 0.00 | 0.00 | 0.00 | 69 | 1009.6 |
| 20260906071604 | 77 | 151 | 0.0 | 0.0 | 0.00 | 0.00 | 0.00 | 68 | 1009.5 |
| 20260906070002 | 78 | 151 | 0.0 | 0.0 | 0.00 | 0.00 | 0.00 | 66 | 1009.5 |
| 20260906064602 | 78 | 151 | 0.0 | 0.0 | 0.00 | 0.00 | 0.00 | 65 | 1009.4 |
| 20260906063103 | 78 | 151 | 0.0 | 0.0 | 0.00 | 0.00 | 0.00 | 65 | 1009.5 |
| 20260906061503 | 79 | 151 | 0.0 | 0.0 | 0.00 | 0.00 | 0.00 | 64 | 1009.6 |
| 20260906060116 | 79 | 151 | 0.0 | 0.0 | 0.00 | 0.00 | 0.00 | 63 | 1009.6 |
| 20260906054509 | 79 | 151 | 0.9 | 1.7 | 0.00 | 0.00 | 0.00 | 63 | 1009.6 |
| 20260906053002 | 80 | 151 | 0.0 | 0.0 | 0.00 | 0.00 | 0.00 | 62 | 1009.6 |
| 20260906051609 | 80 | 151 | 0.0 | 0.0 | 0.00 | 0.00 | 0.00 | 62 | 1009.7 |
| 20260906050003 | 80 | 151 | 0.0 | 1.7 | 0.00 | 0.00 | 0.00 | 62 | 1009.6 |
| 20260906044603 | 81 | 151 | 0.0 | 0.0 | 0.00 | 0.00 | 0.00 | 59 | 1009.6 |
| 20260906043107 | 82 | 151 | 0.0 | 0.0 | 0.00 | 0.00 | 0.00 | 58 | 1009.5 |
| 20260906041504 | 82 | 151 | 0.9 | 2.6 | 0.00 | 0.00 | 0.00 | 57 | 1009.4 |
| 20260906040103 | 84 | 151 | 0.0 | 0.9 | 0.00 | 0.00 | 0.00 | 55 | 1009.7 |
| 20260906034502 | 84 | 151 | 0.0 | 1.7 | 0.00 | 0.00 | 0.00 | 52 | 1009.6 |
| 20260906033002 | 85 | 151 | 0.0 | 0.0 | 0.00 | 0.00 | 0.00 | 51 | 1009.4 |
| 20260906031604 | 86 | 151 | 0.0 | 0.0 | 0.00 | 0.00 | 0.00 | 50 | 1009.3 |
| 20260906030003 | 88 | 151 | 0.0 | 0.0 | 0.00 | 0.00 | 0.00 | 47 | 1009.0 |
| 20260906024603 | 88 | 151 | 0.0 | 4.3 | 0.00 | 0.00 | 0.00 | 46 | 1009.0 |
| 20260906023109 | 89 | 152 | 2.6 | 5.2 | 0.00 | 0.00 | 0.00 | 45 | 1008.8 |
| 20260906021503 | 90 | 148 | 2.6 | 4.3 | 0.00 | 0.00 | 0.00 | 44 | 1008.4 |
| 20260906014508 | 90 | 153 | 2.6 | 5.2 | 0.00 | 0.00 | 0.00 | 43 | 1008.1 |
| 20260906013007 | 90 | 148 | 0.9 | 4.3 | 0.00 | 0.00 | 0.00 | 43 | 1007.9 |
| 20260906011607 | 92 | 121 | 0.0 | 1.7 | 0.00 | 0.00 | 0.00 | 41 | 1007.8 |
| 20260906010003 | 94 | 120 | 0.0 | 0.9 | 0.00 | 0.00 | 0.00 | 39 | 1007.8 |
| 20260906004603 | 96 | 120 | 0.0 | 1.7 | 0.00 | 0.00 | 0.00 | 37 | 1007.9 |
| 20260906003102 | 97 | 146 | 2.6 | 7.8 | 0.00 | 0.00 | 0.00 | 36 | 1008.0 |
| 20260906001501 | 98 | 117 | 1.7 | 7.0 | 0.00 | 0.00 | 0.00 | 35 | 1008.1 |
| 20260906000106 | 98 | 111 | 2.6 | 9.6 | 0.00 | 0.00 | 0.00 | 33 | 1008.0 |
| 20260905234502 | 99 | 113 | 2.6 | 9.6 | 0.00 | 0.00 | 0.00 | 34 | 1007.8 |
| 20260905233003 | 99 | 142 | 5.2 | 9.6 | 0.00 | 0.00 | 0.00 | 33 | 1007.6 |
| 20260905231602 | 100 | 128 | 5.2 | 10.4 | 0.00 | 0.00 | 0.00 | 33 | 1007.5 |
| 20260905230005 | 100 | 130 | 3.5 | 10.4 | 0.00 | 0.00 | 0.00 | 33 | 1007.3 |
| 20260905224604 | 100 | 147 | 4.3 | 14.8 | 0.00 | 0.00 | 0.00 | 33 | 1007.2 |
| 20260905223103 | 100 | 155 | 6.1 | 12.2 | 0.00 | 0.00 | 0.00 | 33 | 1007.1 |
| 20260905221502 | 100 | 173 | 7.0 | 12.2 | 0.00 | 0.00 | 0.00 | 34 | 1007.2 |
| 20260905220103 | 100 | 117 | 3.5 | 13.0 | 0.00 | 0.00 | 0.00 | 33 | 1007.5 |
| 20260905214503 | 101 | 118 | 4.3 | 9.6 | 0.00 | 0.00 | 0.00 | 33 | 1007.4 |
| 20260905213006 | 101 | 111 | 5.2 | 11.3 | 0.00 | 0.00 | 0.00 | 33 | 1007.7 |
| 20260905211611 | 101 | 91 | 5.2 | 12.2 | 0.00 | 0.00 | 0.00 | 33 | 1007.9 |
| 20260905210004 | 101 | 144 | 4.3 | 10.4 | 0.00 | 0.00 | 0.00 | 34 | 1008.0 |